Time;durP1;ratioP1;P1;durP2;ratioP2;P2;SDS_P1;SDS_P2;PMS_P1;PMS_P2;Temp;Humidity;BMP_temperature;BMP_pressure;BME280_temperature;BME280_humidity;BME280_pressure;Samples;Min_cycle;Max_cycle;Signal;HPM_P1;HPM_P2
2023/09/05 00:00:10;;;;;;;2.97;2.63;;;;;;;;;;2071958;28;20511;-90
2023/09/05 00:01:11;;;;;;;2.95;2.65;;;;;;;;;;2064208;28;20073;-90
2023/09/05 00:02:14;;;;;;;3.35;2.58;;;;;;;;;;2072658;28;20435;-91
2023/09/05 00:03:16;;;;;;;2.55;2.35;;;;;;;;;;2080333;28;20124;-90
2023/09/05 00:04:16;;;;;;;3.83;2.80;;;;;;;;;;2080592;28;20053;-91
2023/09/05 00:05:19;;;;;;;3.20;2.53;;;;;;;;;;2072164;28;20045;-91
2023/09/05 00:06:19;;;;;;;2.88;2.58;;;;;;;;;;2056445;28;20041;-90
2023/09/05 00:07:20;;;;;;;3.13;2.20;;;;;;;;;;2079920;28;20029;-91
2023/09/05 00:08:21;;;;;;;3.45;2.72;;;;;;;;;;2071683;28;20065;-90
2023/09/05 00:09:21;;;;;;;2.67;2.00;;;;;;;;;;2063502;28;20566;-90
2023/09/05 00:10:22;;;;;;;3.15;2.50;;;;;;;;;;2063758;28;20090;-90
2023/09/05 00:11:23;;;;;;;2.78;2.50;;;;;;;;;;2079827;28;20037;-90
2023/09/05 00:12:23;;;;;;;3.20;2.65;;;;;;;;;;2079874;28;20033;-91
2023/09/05 00:13:24;;;;;;;3.30;2.40;;;;;;;;;;2072656;28;20060;-91
2023/09/05 00:14:24;;;;;;;3.13;2.70;;;;;;;;;;2072513;28;20429;-91
2023/09/05 00:15:24;;;;;;;3.45;2.47;;;;;;;;;;2072764;28;20128;-91
2023/09/05 00:16:25;;;;;;;5.20;2.47;;;;;;;;;;2080221;28;20068;-91
2023/09/05 00:17:25;;;;;;;2.80;2.50;;;;;;;;;;2072294;28;20038;-91
2023/09/05 00:18:26;;;;;;;3.95;2.40;;;;;;;;;;2064235;28;20030;-90
2023/09/05 00:19:26;;;;;;;3.60;2.97;;;;;;;;;;2063887;28;20146;-91
2023/09/05 00:20:27;;;;;;;2.90;2.58;;;;;;;;;;2063844;28;20097;-90
2023/09/05 00:21:27;;;;;;;2.72;2.10;;;;;;;;;;2072034;28;20125;-90
2023/09/05 00:22:27;;;;;;;3.50;2.90;;;;;;;;;;2071967;28;20528;-90
2023/09/05 00:23:28;;;;;;;2.92;2.47;;;;;;;;;;2063869;28;20038;-89
2023/09/05 00:24:37;;;;;;;5.47;2.78;;;;;;;;;;2071754;28;20136;-90
2023/09/05 00:25:38;;;;;;;4.88;2.72;;;;;;;;;;2079019;28;20044;-89
2023/09/05 00:26:39;;;;;;;4.35;2.67;;;;;;;;;;1730002;28;10095099;-91
2023/09/05 00:27:40;;;;;;;2.75;2.45;;;;;;;;;;2079990;28;20048;-90
2023/09/05 00:28:43;;;;;;;2.88;2.53;;;;;;;;;;2064268;28;20050;-90
2023/09/05 00:29:44;;;;;;;2.90;2.55;;;;;;;;;;2063844;28;20546;-92
2023/09/05 00:30:45;;;;;;;2.92;2.58;;;;;;;;;;2064084;28;20042;-90
2023/09/05 00:31:49;;;;;;;3.25;2.45;;;;;;;;;;2079970;28;20037;-91
2023/09/05 00:32:49;;;;;;;3.85;3.03;;;;;;;;;;2071626;28;20042;-90
2023/09/05 00:33:50;;;;;;;3.08;2.72;;;;;;;;;;2064176;28;20492;-91
2023/09/05 00:34:51;;;;;;;3.65;3.08;;;;;;;;;;2072624;28;20049;-91
2023/09/05 00:35:53;;;;;;;3.00;2.40;;;;;;;;;;2072912;28;20034;-91
2023/09/05 00:36:53;;;;;;;3.33;2.65;;;;;;;;;;2073020;28;20068;-90
2023/09/05 00:37:54;;;;;;;4.22;2.85;;;;;;;;;;2063978;28;20065;-91
2023/09/05 00:38:55;;;;;;;3.20;2.85;;;;;;;;;;2060028;28;20042;-91
2023/09/05 00:39:55;;;;;;;3.28;2.85;;;;;;;;;;2074166;28;20140;-91
2023/09/05 00:40:55;;;;;;;3.80;2.80;;;;;;;;;;2082155;28;20073;-91
2023/09/05 00:41:56;;;;;;;4.32;3.15;;;;;;;;;;2063397;28;20034;-91
2023/09/05 00:42:58;;;;;;;4.05;2.75;;;;;;;;;;2063230;28;20120;-90
2023/09/05 00:43:59;;;;;;;3.80;2.63;;;;;;;;;;2072279;28;20128;-90
2023/09/05 00:44:59;;;;;;;3.40;2.92;;;;;;;;;;2071598;28;20100;-91
2023/09/05 00:46:00;;;;;;;4.68;3.22;;;;;;;;;;2071923;28;20034;-91
2023/09/05 00:47:00;;;;;;;4.40;3.30;;;;;;;;;;2063162;28;20045;-90
2023/09/05 00:48:02;;;;;;;4.03;2.67;;;;;;;;;;2063592;28;20038;-90
2023/09/05 00:49:02;;;;;;;5.00;3.30;;;;;;;;;;2084410;28;20178;-91
2023/09/05 00:50:05;;;;;;;3.13;2.70;;;;;;;;;;2080054;28;20136;-90
2023/09/05 00:51:08;;;;;;;4.40;3.55;;;;;;;;;;2066193;28;20034;-90
2023/09/05 00:52:10;;;;;;;4.05;2.92;;;;;;;;;;2063700;28;20352;-90
2023/09/05 00:53:10;;;;;;;3.10;2.80;;;;;;;;;;2079731;28;20128;-90
2023/09/05 00:54:11;;;;;;;3.40;3.00;;;;;;;;;;2071574;28;20045;-90
2023/09/05 00:55:12;;;;;;;4.53;2.92;;;;;;;;;;2063421;28;20518;-90
2023/09/05 00:56:12;;;;;;;4.43;2.90;;;;;;;;;;2063317;28;20487;-90
2023/09/05 00:57:14;;;;;;;4.45;2.67;;;;;;;;;;2063530;28;20371;-91
2023/09/05 00:58:15;;;;;;;3.22;2.70;;;;;;;;;;2072065;28;20053;-90
2023/09/05 00:59:16;;;;;;;3.20;2.90;;;;;;;;;;2071490;28;20057;-90
2023/09/05 01:00:17;;;;;;;5.05;3.17;;;;;;;;;;2063141;28;20038;-90
2023/09/05 01:01:18;;;;;;;4.13;3.17;;;;;;;;;;2063485;28;20078;-90
2023/09/05 01:02:18;;;;;;;3.65;2.75;;;;;;;;;;2079660;28;20049;-90
2023/09/05 01:03:19;;;;;;;3.38;2.80;;;;;;;;;;2071533;28;20044;-90
2023/09/05 01:04:19;;;;;;;3.28;2.97;;;;;;;;;;2071227;28;20029;-89
2023/09/05 01:05:25;;;;;;;3.17;2.63;;;;;;;;;;2079542;28;20451;-91
2023/09/05 01:06:46;;;;;;;4.32;3.30;;;;;;;;;;2079448;28;20037;-91
2023/09/05 01:08:11;;;;;;;3.22;2.55;;;;;;;;;;2085190;28;20048;-91
2023/09/05 01:09:27;;;;;;;4.97;2.47;;;;;;;;;;2076570;28;20148;-90
2023/09/05 01:11:00;;;;;;;3.45;2.85;;;;;;;;;;2072021;28;20034;-91
2023/09/05 01:12:01;;;;;;;2.88;2.47;;;;;;;;;;2063137;28;20475;-91
2023/09/05 01:13:02;;;;;;;3.65;2.95;;;;;;;;;;2063254;28;20435;-90
2023/09/05 01:14:02;;;;;;;5.03;2.53;;;;;;;;;;2063527;28;20064;-90
2023/09/05 01:15:03;;;;;;;3.53;3.20;;;;;;;;;;2063255;28;20526;-91
2023/09/05 01:16:04;;;;;;;5.43;3.08;;;;;;;;;;2063110;28;20042;-91
2023/09/05 01:17:05;;;;;;;3.65;2.65;;;;;;;;;;2063016;28;20133;-90
2023/09/05 01:18:05;;;;;;;3.47;3.08;;;;;;;;;;2063358;28;20046;-91
2023/09/05 01:19:06;;;;;;;4.30;2.92;;;;;;;;;;2063234;28;20042;-91
2023/09/05 01:20:08;;;;;;;4.32;2.97;;;;;;;;;;2071205;28;20223;-90
2023/09/05 01:21:31;;;;;;;3.53;3.05;;;;;;;;;;2079247;28;20132;-92
2023/09/05 01:22:44;;;;;;;3.00;2.45;;;;;;;;;;2071973;28;20092;-90
2023/09/05 01:24:09;;;;;;;4.22;2.72;;;;;;;;;;2079929;28;20048;-91
2023/09/05 01:25:11;;;;;;;5.10;2.78;;;;;;;;;;2076769;28;20054;-91
2023/09/05 01:26:11;;;;;;;3.03;2.50;;;;;;;;;;2079540;28;20052;-90
2023/09/05 01:27:17;;;;;;;6.47;3.40;;;;;;;;;;2076317;28;20496;-90
2023/09/05 01:28:23;;;;;;;3.80;3.38;;;;;;;;;;2069043;28;20068;-90
2023/09/05 01:29:34;;;;;;;3.50;2.60;;;;;;;;;;2064286;28;20094;-90
2023/09/05 01:30:35;;;;;;;3.30;2.83;;;;;;;;;;2079517;28;20465;-91
2023/09/05 01:31:35;;;;;;;3.83;3.10;;;;;;;;;;2079526;28;20034;-90
2023/09/05 01:32:37;;;;;;;3.70;3.35;;;;;;;;;;2079488;28;20037;-90
2023/09/05 01:33:38;;;;;;;3.88;3.17;;;;;;;;;;2071320;28;20183;-92
2023/09/05 01:34:40;;;;;;;3.97;3.58;;;;;;;;;;2071337;28;20050;-91
2023/09/05 01:35:41;;;;;;;3.67;3.15;;;;;;;;;;2071157;28;20045;-92
2023/09/05 01:36:41;;;;;;;3.75;3.35;;;;;;;;;;2071146;28;20140;-91
2023/09/05 01:37:42;;;;;;;4.53;3.97;;;;;;;;;;2079449;28;20063;-91
2023/09/05 01:38:43;;;;;;;4.15;3.55;;;;;;;;;;2079420;28;20128;-90
2023/09/05 01:39:43;;;;;;;4.55;3.50;;;;;;;;;;2070949;28;20041;-91
2023/09/05 01:40:43;;;;;;;4.18;3.10;;;;;;;;;;2063241;28;20196;-91
2023/09/05 01:41:44;;;;;;;4.40;3.50;;;;;;;;;;2071744;28;20089;-90
2023/09/05 01:42:45;;;;;;;4.05;3.63;;;;;;;;;;2071909;28;20529;-90
2023/09/05 01:43:45;;;;;;;4.32;3.50;;;;;;;;;;2072004;28;20512;-90
2023/09/05 01:44:45;;;;;;;4.13;3.58;;;;;;;;;;2079291;28;20235;-90
2023/09/05 01:45:46;;;;;;;4.28;3.63;;;;;;;;;;2070989;28;20053;-91
2023/09/05 01:46:46;;;;;;;5.28;3.58;;;;;;;;;;2063183;28;20053;-91
2023/09/05 01:47:46;;;;;;;6.57;3.88;;;;;;;;;;2079306;28;20049;-90
2023/09/05 01:48:47;;;;;;;3.63;3.28;;;;;;;;;;2087397;28;20068;-91
2023/09/05 01:49:47;;;;;;;5.95;3.80;;;;;;;;;;2071155;28;20546;-91
2023/09/05 01:50:49;;;;;;;4.13;3.33;;;;;;;;;;2063149;28;20046;-91
2023/09/05 01:51:49;;;;;;;5.40;3.47;;;;;;;;;;2063480;28;20123;-91
2023/09/05 01:52:50;;;;;;;4.30;3.90;;;;;;;;;;2071051;28;20380;-91
2023/09/05 01:53:50;;;;;;;3.95;3.15;;;;;;;;;;2079132;28;20045;-91
2023/09/05 01:54:51;;;;;;;4.50;3.88;;;;;;;;;;2079411;28;20038;-91
2023/09/05 01:55:51;;;;;;;3.60;3.05;;;;;;;;;;2062573;28;20042;-91
2023/09/05 01:56:52;;;;;;;4.90;3.47;;;;;;;;;;2063168;28;20042;-91
2023/09/05 01:57:52;;;;;;;4.57;3.55;;;;;;;;;;2063374;28;20128;-90
2023/09/05 01:58:53;;;;;;;5.53;4.28;;;;;;;;;;2071307;28;20046;-89
2023/09/05 01:59:53;;;;;;;4.50;3.63;;;;;;;;;;2071335;28;20042;-90
2023/09/05 02:00:53;;;;;;;5.50;4.18;;;;;;;;;;2063283;28;20102;-91
2023/09/05 02:01:54;;;;;;;4.53;4.07;;;;;;;;;;2063339;28;20065;-91
2023/09/05 02:02:54;;;;;;;4.43;3.70;;;;;;;;;;2079544;28;20045;-90
2023/09/05 02:03:55;;;;;;;6.45;3.20;;;;;;;;;;1708738;28;10497970;-89
2023/09/05 02:04:55;;;;;;;4.70;3.65;;;;;;;;;;2071980;28;20531;-91
2023/09/05 02:05:55;;;;;;;4.13;3.72;;;;;;;;;;2079504;28;20045;-91
2023/09/05 02:06:56;;;;;;;4.57;3.95;;;;;;;;;;2063231;28;20432;-91
2023/09/05 02:07:56;;;;;;;4.45;3.63;;;;;;;;;;2073541;28;20085;-91
2023/09/05 02:08:56;;;;;;;5.45;3.60;;;;;;;;;;2071416;28;20034;-91
2023/09/05 02:09:57;;;;;;;6.18;4.18;;;;;;;;;;2071347;28;20392;-91
2023/09/05 02:10:57;;;;;;;5.10;4.45;;;;;;;;;;2087695;28;20051;-90
2023/09/05 02:11:57;;;;;;;4.68;4.20;;;;;;;;;;2079655;28;20043;-91
2023/09/05 02:12:58;;;;;;;4.82;4.30;;;;;;;;;;1718219;28;10238568;-89
2023/09/05 02:13:58;;;;;;;7.15;4.15;;;;;;;;;;2072311;28;20033;-91
2023/09/05 02:15:00;;;;;;;4.45;4.05;;;;;;;;;;2081119;28;20454;-91
2023/09/05 02:16:00;;;;;;;4.40;3.83;;;;;;;;;;2085032;28;20057;-89
2023/09/05 02:17:00;;;;;;;4.65;4.00;;;;;;;;;;2073460;28;20540;-91
2023/09/05 02:18:02;;;;;;;5.55;4.78;;;;;;;;;;2063491;28;20620;-91
2023/09/05 02:19:02;;;;;;;4.13;3.63;;;;;;;;;;2071388;28;20042;-90
2023/09/05 02:20:03;;;;;;;5.85;3.97;;;;;;;;;;2079340;28;20167;-91
2023/09/05 02:21:04;;;;;;;6.35;3.85;;;;;;;;;;2062731;28;20038;-92
2023/09/05 02:22:04;;;;;;;5.30;4.20;;;;;;;;;;2062852;28;20512;-91
2023/09/05 02:23:05;;;;;;;4.82;4.18;;;;;;;;;;2078603;28;20038;-91
2023/09/05 02:24:05;;;;;;;5.25;4.07;;;;;;;;;;2070796;28;20044;-90
2023/09/05 02:25:06;;;;;;;5.97;4.10;;;;;;;;;;2062792;28;20038;-90
2023/09/05 02:26:07;;;;;;;5.40;4.38;;;;;;;;;;2078948;28;20391;-91
2023/09/05 02:27:08;;;;;;;5.35;3.40;;;;;;;;;;2087253;28;20095;-90
2023/09/05 02:28:08;;;;;;;5.32;4.10;;;;;;;;;;2078812;28;20674;-91
2023/09/05 02:29:08;;;;;;;4.70;4.07;;;;;;;;;;2062662;28;20117;-91
2023/09/05 02:30:09;;;;;;;4.75;4.22;;;;;;;;;;2054894;28;20061;-91
2023/09/05 02:31:10;;;;;;;4.10;3.50;;;;;;;;;;2070793;28;20041;-90
2023/09/05 02:32:10;;;;;;;5.30;4.13;;;;;;;;;;2070943;28;20057;-89
2023/09/05 02:33:10;;;;;;;4.35;3.67;;;;;;;;;;2071112;28;20363;-90
2023/09/05 02:34:11;;;;;;;4.50;3.92;;;;;;;;;;2063124;28;20401;-90
2023/09/05 02:35:11;;;;;;;4.38;3.65;;;;;;;;;;2062951;28;20128;-90
2023/09/05 02:36:18;;;;;;;6.03;4.22;;;;;;;;;;2079302;28;20398;-90
2023/09/05 02:37:18;;;;;;;6.95;4.28;;;;;;;;;;2070606;28;20121;-90
2023/09/05 02:38:19;;;;;;;5.22;3.78;;;;;;;;;;2063056;28;20042;-90
2023/09/05 02:39:20;;;;;;;5.78;4.60;;;;;;;;;;2062971;28;20034;-89
2023/09/05 02:40:21;;;;;;;5.88;4.20;;;;;;;;;;2062859;28;20129;-90
2023/09/05 02:41:21;;;;;;;4.65;3.70;;;;;;;;;;2071869;28;20046;-90
2023/09/05 02:42:22;;;;;;;6.20;4.20;;;;;;;;;;2071785;28;20548;-90
2023/09/05 02:43:22;;;;;;;8.20;4.78;;;;;;;;;;2071832;28;20503;-89
2023/09/05 02:44:23;;;;;;;5.05;3.88;;;;;;;;;;2078372;28;20057;-90
2023/09/05 02:45:23;;;;;;;5.60;5.07;;;;;;;;;;2070576;28;20045;-89
2023/09/05 02:46:23;;;;;;;5.78;4.32;;;;;;;;;;2063367;28;20548;-90
2023/09/05 02:47:24;;;;;;;4.63;4.20;;;;;;;;;;2071020;28;20042;-90
2023/09/05 02:48:24;;;;;;;7.35;3.90;;;;;;;;;;2070723;28;20181;-90
2023/09/05 02:49:24;;;;;;;6.47;4.40;;;;;;;;;;2062530;28;20034;-89
2023/09/05 02:50:25;;;;;;;4.80;4.35;;;;;;;;;;2070816;28;20034;-89
2023/09/05 02:51:25;;;;;;;5.32;4.65;;;;;;;;;;2071604;28;20053;-89
2023/09/05 02:52:26;;;;;;;4.93;4.20;;;;;;;;;;2062734;28;20074;-89
2023/09/05 02:53:26;;;;;;;5.53;4.07;;;;;;;;;;2062256;28;20125;-90
2023/09/05 02:54:29;;;;;;;6.32;4.95;;;;;;;;;;2062017;28;20268;-91
2023/09/05 02:55:43;;;;;;;5.00;4.28;;;;;;;;;;1800933;28;10001018;-90
2023/09/05 02:56:44;;;;;;;5.20;4.70;;;;;;;;;;2078689;28;20246;-90
2023/09/05 02:57:44;;;;;;;6.43;4.43;;;;;;;;;;2070321;28;20519;-90
2023/09/05 02:58:45;;;;;;;5.05;4.45;;;;;;;;;;2062356;28;20057;-91
2023/09/05 02:59:45;;;;;;;6.72;4.60;;;;;;;;;;2062878;28;20038;-92
2023/09/05 03:00:49;;;;;;;4.93;4.05;;;;;;;;;;2063092;28;20030;-90
2023/09/05 03:01:50;;;;;;;5.47;4.53;;;;;;;;;;2063810;28;20042;-90
2023/09/05 03:02:50;;;;;;;4.95;4.50;;;;;;;;;;2073182;28;20056;-90
2023/09/05 03:03:50;;;;;;;6.28;5.68;;;;;;;;;;2076515;28;20184;-91
2023/09/05 03:04:54;;;;;;;6.63;4.88;;;;;;;;;;2068521;28;20141;-89
2023/09/05 03:05:55;;;;;;;7.25;5.05;;;;;;;;;;2075364;28;20038;-91
2023/09/05 03:06:55;;;;;;;5.90;5.32;;;;;;;;;;2087635;28;20168;-91
2023/09/05 03:07:56;;;;;;;7.00;4.55;;;;;;;;;;2071219;28;20045;-90
2023/09/05 03:08:56;;;;;;;5.55;5.03;;;;;;;;;;2063165;28;20045;-91
2023/09/05 03:09:56;;;;;;;4.85;4.32;;;;;;;;;;2063101;28;20617;-89
2023/09/05 03:10:58;;;;;;;6.65;4.95;;;;;;;;;;2062863;28;20054;-89
2023/09/05 03:11:58;;;;;;;6.57;5.45;;;;;;;;;;2063085;28;20038;-89
2023/09/05 03:12:58;;;;;;;6.03;5.43;;;;;;;;;;2063068;28;20111;-90
2023/09/05 03:14:01;;;;;;;6.03;5.18;;;;;;;;;;2063087;28;20186;-90
2023/09/05 03:15:02;;;;;;;5.78;4.50;;;;;;;;;;1712196;28;10188254;-91
2023/09/05 03:16:03;;;;;;;7.35;5.80;;;;;;;;;;2071071;28;20546;-90
2023/09/05 03:17:04;;;;;;;5.38;4.88;;;;;;;;;;2087350;28;20048;-90
2023/09/05 03:18:05;;;;;;;6.45;5.75;;;;;;;;;;2071053;28;20389;-90
2023/09/05 03:19:06;;;;;;;5.15;4.53;;;;;;;;;;2066241;28;20132;-90
2023/09/05 03:20:07;;;;;;;8.18;5.32;;;;;;;;;;2079385;28;20092;-91
2023/09/05 03:21:08;;;;;;;5.97;5.38;;;;;;;;;;2079489;28;20123;-91
2023/09/05 03:22:08;;;;;;;6.07;5.43;;;;;;;;;;2063309;28;20517;-90
2023/09/05 03:23:08;;;;;;;6.07;5.40;;;;;;;;;;2070901;28;20127;-90
2023/09/05 03:24:09;;;;;;;6.53;5.20;;;;;;;;;;2079458;28;20153;-90
2023/09/05 03:25:10;;;;;;;7.93;5.70;;;;;;;;;;2071625;28;20503;-90
2023/09/05 03:26:10;;;;;;;5.80;5.30;;;;;;;;;;2071124;28;20142;-90
2023/09/05 03:27:13;;;;;;;6.25;5.57;;;;;;;;;;2063028;28;20571;-90
2023/09/05 03:28:14;;;;;;;5.93;5.28;;;;;;;;;;2071015;28;20117;-91
2023/09/05 03:29:14;;;;;;;6.57;5.82;;;;;;;;;;2086857;28;20115;-90
2023/09/05 03:30:14;;;;;;;7.15;5.38;;;;;;;;;;2078612;28;20100;-90
2023/09/05 03:31:16;;;;;;;8.45;5.45;;;;;;;;;;2071728;28;20356;-90
2023/09/05 03:32:16;;;;;;;7.05;5.60;;;;;;;;;;2079221;28;20036;-90
2023/09/05 03:33:17;;;;;;;6.35;5.75;;;;;;;;;;2071174;28;20132;-91
2023/09/05 03:34:17;;;;;;;6.63;6.03;;;;;;;;;;2063121;28;20163;-90
2023/09/05 03:35:17;;;;;;;6.57;5.90;;;;;;;;;;2064475;28;20546;-90
2023/09/05 03:36:18;;;;;;;9.48;5.93;;;;;;;;;;2072756;28;20041;-90
2023/09/05 03:37:18;;;;;;;6.30;5.45;;;;;;;;;;2080901;28;20050;-90
2023/09/05 03:38:18;;;;;;;7.45;5.65;;;;;;;;;;2064682;28;20034;-90
2023/09/05 03:39:19;;;;;;;6.90;5.68;;;;;;;;;;2064374;28;20034;-89
2023/09/05 03:40:19;;;;;;;8.10;6.20;;;;;;;;;;2080560;28;20044;-90
2023/09/05 03:41:20;;;;;;;9.13;5.32;;;;;;;;;;2072554;28;20066;-90
2023/09/05 03:42:20;;;;;;;6.10;5.50;;;;;;;;;;2064449;28;20043;-90
2023/09/05 03:43:21;;;;;;;6.65;6.00;;;;;;;;;;2080606;28;20034;-91
2023/09/05 03:44:21;;;;;;;6.53;5.85;;;;;;;;;;1719134;28;10001283;-90
2023/09/05 03:45:22;;;;;;;7.72;5.75;;;;;;;;;;2064514;28;20037;-91
2023/09/05 03:46:22;;;;;;;9.50;6.00;;;;;;;;;;2061482;28;20034;-90
2023/09/05 03:47:22;;;;;;;7.75;6.05;;;;;;;;;;2066099;28;20030;-91
2023/09/05 03:48:23;;;;;;;7.32;6.35;;;;;;;;;;2072519;28;20033;-90
2023/09/05 03:49:23;;;;;;;7.72;6.10;;;;;;;;;;2072602;28;20070;-90
2023/09/05 03:50:23;;;;;;;8.18;6.10;;;;;;;;;;1710227;28;10278027;-91
2023/09/05 03:51:26;;;;;;;6.68;5.95;;;;;;;;;;2068777;28;20033;-90
2023/09/05 03:52:26;;;;;;;6.35;5.75;;;;;;;;;;2085755;28;20080;-89
2023/09/05 03:53:26;;;;;;;6.15;5.43;;;;;;;;;;2073235;28;20025;-90
2023/09/05 03:54:27;;;;;;;8.68;5.82;;;;;;;;;;2064956;28;20026;-90
2023/09/05 03:55:27;;;;;;;6.85;6.25;;;;;;;;;;2072550;28;20062;-91
2023/09/05 03:56:28;;;;;;;7.50;6.30;;;;;;;;;;2088727;28;20028;-90
2023/09/05 03:57:28;;;;;;;6.70;5.95;;;;;;;;;;2081605;28;20051;-92
2023/09/05 03:58:31;;;;;;;10.32;7.72;;;;;;;;;;2063880;28;20038;-90
2023/09/05 03:59:31;;;;;;;7.88;5.45;;;;;;;;;;2064161;28;20090;-90
2023/09/05 04:00:33;;;;;;;7.07;6.30;;;;;;;;;;2080442;28;20198;-90
2023/09/05 04:01:33;;;;;;;8.20;5.82;;;;;;;;;;2072221;28;20030;-90
2023/09/05 04:02:33;;;;;;;6.32;5.72;;;;;;;;;;2064066;28;20026;-91
2023/09/05 04:03:34;;;;;;;7.35;5.75;;;;;;;;;;2064102;28;20034;-90
2023/09/05 04:04:34;;;;;;;9.00;6.57;;;;;;;;;;2072036;28;20037;-90
2023/09/05 04:05:35;;;;;;;6.93;6.20;;;;;;;;;;2072341;28;20039;-90
2023/09/05 04:06:37;;;;;;;6.80;6.10;;;;;;;;;;2064211;28;20034;-89
2023/09/05 04:07:38;;;;;;;14.85;10.82;;;;;;;;;;2072282;28;20030;-89
2023/09/05 04:08:38;;;;;;;9.60;8.13;;;;;;;;;;2072060;28;20392;-90
2023/09/05 04:09:38;;;;;;;14.30;10.60;;;;;;;;;;2063900;28;20057;-90
2023/09/05 04:10:39;;;;;;;7.07;6.25;;;;;;;;;;2072233;28;20068;-90
2023/09/05 04:11:39;;;;;;;7.45;6.05;;;;;;;;;;2072357;28;20660;-89
2023/09/05 04:12:40;;;;;;;9.02;6.88;;;;;;;;;;2064018;28;20064;-89
2023/09/05 04:13:40;;;;;;;6.80;5.82;;;;;;;;;;2071869;28;20041;-91
2023/09/05 04:14:41;;;;;;;6.88;6.18;;;;;;;;;;2072152;28;20030;-90
2023/09/05 04:15:41;;;;;;;7.55;6.53;;;;;;;;;;2063705;28;20101;-89
2023/09/05 04:16:42;;;;;;;7.00;6.32;;;;;;;;;;2079449;28;20115;-91
2023/09/05 04:17:42;;;;;;;7.22;5.05;;;;;;;;;;2080111;28;20132;-90
2023/09/05 04:18:43;;;;;;;6.28;5.28;;;;;;;;;;2072147;28;20042;-90
2023/09/05 04:19:43;;;;;;;5.72;5.22;;;;;;;;;;2072456;28;20616;-90
2023/09/05 04:20:44;;;;;;;7.28;5.13;;;;;;;;;;2063064;28;20046;-90
2023/09/05 04:21:44;;;;;;;6.22;5.55;;;;;;;;;;2063290;28;20073;-90
2023/09/05 04:22:45;;;;;;;6.75;6.05;;;;;;;;;;2071950;28;20458;-90
2023/09/05 04:23:45;;;;;;;6.25;5.57;;;;;;;;;;2072241;28;20038;-91
2023/09/05 04:24:45;;;;;;;9.43;6.95;;;;;;;;;;2072509;28;20121;-91
2023/09/05 04:25:46;;;;;;;7.32;5.90;;;;;;;;;;2079394;28;20045;-90
2023/09/05 04:26:46;;;;;;;6.93;6.03;;;;;;;;;;2071249;28;20694;-91
2023/09/05 04:27:48;;;;;;;7.53;6.47;;;;;;;;;;2063632;28;20042;-91
2023/09/05 04:28:48;;;;;;;6.55;5.13;;;;;;;;;;2063603;28;20045;-91
2023/09/05 04:29:51;;;;;;;6.90;6.20;;;;;;;;;;2063614;28;20042;-90
2023/09/05 04:30:54;;;;;;;5.95;5.35;;;;;;;;;;2063559;28;20093;-91
2023/09/05 04:31:55;;;;;;;6.75;6.05;;;;;;;;;;2064006;28;20046;-91
2023/09/05 04:32:57;;;;;;;7.63;6.80;;;;;;;;;;2072342;28;20034;-91
2023/09/05 04:33:58;;;;;;;9.38;6.93;;;;;;;;;;2072257;28;20046;-92
2023/09/05 04:35:03;;;;;;;7.53;6.38;;;;;;;;;;2061249;28;20041;-89
2023/09/05 04:36:07;;;;;;;6.88;6.10;;;;;;;;;;2063932;28;20053;-91
2023/09/05 04:37:08;;;;;;;6.70;6.05;;;;;;;;;;2079736;28;20072;-91
2023/09/05 04:38:09;;;;;;;6.85;6.22;;;;;;;;;;2071343;28;20050;-91
2023/09/05 04:39:10;;;;;;;7.68;6.07;;;;;;;;;;2065995;28;20046;-91
2023/09/05 04:40:10;;;;;;;6.78;6.07;;;;;;;;;;2077160;28;20388;-91
2023/09/05 04:41:11;;;;;;;6.97;5.80;;;;;;;;;;2082762;28;20039;-90
2023/09/05 04:42:11;;;;;;;6.80;5.25;;;;;;;;;;2063725;28;20574;-92
2023/09/05 04:43:12;;;;;;;7.03;6.32;;;;;;;;;;2063640;28;20127;-91
2023/09/05 04:44:12;;;;;;;6.35;5.85;;;;;;;;;;2063739;28;20050;-91
2023/09/05 04:45:13;;;;;;;7.05;5.60;;;;;;;;;;2063303;28;20575;-91
2023/09/05 04:46:14;;;;;;;6.93;6.28;;;;;;;;;;2072170;28;20050;-91
2023/09/05 04:47:22;;;;;;;6.75;6.05;;;;;;;;;;2072419;28;20038;-91
2023/09/05 04:48:24;;;;;;;7.25;5.32;;;;;;;;;;2072222;28;20038;-90
2023/09/05 04:49:24;;;;;;;7.57;6.20;;;;;;;;;;2071567;28;20207;-90
2023/09/05 04:50:25;;;;;;;7.68;5.97;;;;;;;;;;2063609;28;20090;-91
2023/09/05 04:51:25;;;;;;;7.43;5.85;;;;;;;;;;2071409;28;20128;-90
2023/09/05 04:52:27;;;;;;;6.50;5.90;;;;;;;;;;2071479;28;20037;-90
2023/09/05 04:53:28;;;;;;;6.80;6.20;;;;;;;;;;2063544;28;20560;-90
2023/09/05 04:54:29;;;;;;;7.15;6.43;;;;;;;;;;2063471;28;20133;-90
2023/09/05 04:55:29;;;;;;;7.15;6.45;;;;;;;;;;2071445;28;20042;-90
2023/09/05 04:56:29;;;;;;;8.40;7.07;;;;;;;;;;2071370;28;20034;-91
2023/09/05 04:57:30;;;;;;;8.70;6.75;;;;;;;;;;2063313;28;20034;-91
2023/09/05 04:58:30;;;;;;;6.60;6.00;;;;;;;;;;2071604;28;20092;-91
2023/09/05 04:59:31;;;;;;;7.28;6.30;;;;;;;;;;2071381;28;20097;-90
2023/09/05 05:00:34;;;;;;;7.03;6.43;;;;;;;;;;2072616;28;20053;-91
2023/09/05 05:01:34;;;;;;;6.63;5.97;;;;;;;;;;2069131;28;20080;-91
2023/09/05 05:02:35;;;;;;;6.90;6.10;;;;;;;;;;2071652;28;20120;-90
2023/09/05 05:03:38;;;;;;;8.05;6.47;;;;;;;;;;2063195;28;20072;-91
2023/09/05 05:04:38;;;;;;;6.15;5.53;;;;;;;;;;2063809;28;20086;-91
2023/09/05 05:05:39;;;;;;;7.78;7.03;;;;;;;;;;2063039;28;20060;-91
2023/09/05 05:06:54;;;;;;;9.93;6.80;;;;;;;;;;2063485;28;20547;-92
2023/09/05 05:07:55;;;;;;;6.45;5.85;;;;;;;;;;2079591;28;20106;-91
2023/09/05 05:08:55;;;;;;;9.20;7.18;;;;;;;;;;2071187;28;20112;-90
2023/09/05 05:09:56;;;;;;;7.43;6.30;;;;;;;;;;2063381;28;20038;-91
2023/09/05 05:10:56;;;;;;;8.35;6.68;;;;;;;;;;2073520;28;20037;-90
2023/09/05 05:11:56;;;;;;;6.07;5.47;;;;;;;;;;2072450;28;20479;-91
2023/09/05 05:12:57;;;;;;;10.00;6.75;;;;;;;;;;2074285;28;20041;-90
2023/09/05 05:13:59;;;;;;;7.07;6.32;;;;;;;;;;1722511;28;10297783;-89
2023/09/05 05:15:00;;;;;;;7.88;6.05;;;;;;;;;;2088594;28;20048;-89
2023/09/05 05:16:00;;;;;;;7.88;7.18;;;;;;;;;;2079762;28;20626;-90
2023/09/05 05:17:01;;;;;;;8.90;7.05;;;;;;;;;;2071862;28;20037;-90
2023/09/05 05:18:02;;;;;;;7.38;6.30;;;;;;;;;;2079597;28;20150;-89
2023/09/05 05:19:03;;;;;;;11.48;6.97;;;;;;;;;;2071953;28;20462;-90
2023/09/05 05:20:07;;;;;;;6.85;6.20;;;;;;;;;;2064356;28;20050;-90
2023/09/05 05:21:07;;;;;;;7.47;6.47;;;;;;;;;;2072824;28;20040;-91
2023/09/05 05:22:07;;;;;;;8.00;6.38;;;;;;;;;;2072489;28;20045;-89
2023/09/05 05:23:08;;;;;;;8.32;6.55;;;;;;;;;;2064556;28;20080;-91
2023/09/05 05:24:08;;;;;;;6.38;5.85;;;;;;;;;;2072446;28;20054;-91
2023/09/05 05:25:09;;;;;;;6.88;5.93;;;;;;;;;;2071721;28;20072;-90
2023/09/05 05:26:09;;;;;;;7.35;6.65;;;;;;;;;;2079376;28;20080;-90
2023/09/05 05:27:10;;;;;;;7.03;6.35;;;;;;;;;;2072679;28;20133;-90
2023/09/05 05:28:10;;;;;;;7.10;6.50;;;;;;;;;;2069577;28;20106;-91
2023/09/05 05:29:11;;;;;;;8.15;6.50;;;;;;;;;;2084600;28;20101;-91
2023/09/05 05:30:12;;;;;;;7.45;6.75;;;;;;;;;;2070465;28;20153;-90
2023/09/05 05:31:13;;;;;;;7.65;6.47;;;;;;;;;;2062894;28;20041;-90
2023/09/05 05:32:14;;;;;;;8.70;7.05;;;;;;;;;;2062614;28;20102;-91
2023/09/05 05:33:14;;;;;;;6.93;6.32;;;;;;;;;;2062675;28;20034;-90
2023/09/05 05:34:16;;;;;;;8.82;6.80;;;;;;;;;;2062539;28;20204;-91
2023/09/05 05:35:16;;;;;;;8.15;6.75;;;;;;;;;;2063659;28;20042;-91
2023/09/05 05:36:17;;;;;;;8.98;7.00;;;;;;;;;;2063006;28;20073;-90
2023/09/05 05:37:17;;;;;;;8.90;7.15;;;;;;;;;;2062848;28;20069;-89
2023/09/05 05:38:17;;;;;;;7.10;6.40;;;;;;;;;;2071751;28;20052;-90
2023/09/05 05:39:22;;;;;;;7.32;6.70;;;;;;;;;;2079317;28;20091;-90
2023/09/05 05:40:22;;;;;;;7.57;6.88;;;;;;;;;;2079809;28;20411;-90
2023/09/05 05:41:23;;;;;;;7.25;6.55;;;;;;;;;;2072248;28;20067;-90
2023/09/05 05:42:23;;;;;;;7.00;6.40;;;;;;;;;;2070860;28;20038;-90
2023/09/05 05:43:27;;;;;;;8.73;6.63;;;;;;;;;;2062892;28;20096;-90
2023/09/05 05:44:27;;;;;;;7.07;6.38;;;;;;;;;;2063094;28;20088;-91
2023/09/05 05:45:28;;;;;;;7.90;7.03;;;;;;;;;;2071659;28;20042;-90
2023/09/05 05:46:30;;;;;;;8.15;6.75;;;;;;;;;;2071622;28;20045;-89
2023/09/05 05:47:31;;;;;;;7.88;7.07;;;;;;;;;;2079266;28;20038;-90
2023/09/05 05:48:31;;;;;;;8.60;7.68;;;;;;;;;;2070861;28;20046;-90
2023/09/05 05:49:32;;;;;;;7.65;6.22;;;;;;;;;;2076878;28;20038;-88
2023/09/05 05:50:32;;;;;;;7.68;6.95;;;;;;;;;;2086278;28;20040;-88
2023/09/05 05:51:33;;;;;;;7.60;6.90;;;;;;;;;;2070662;28;20030;-90
2023/09/05 05:52:34;;;;;;;10.43;7.03;;;;;;;;;;2077984;28;20069;-90
2023/09/05 05:53:34;;;;;;;7.65;6.75;;;;;;;;;;2083699;28;20076;-90
2023/09/05 05:54:34;;;;;;;8.02;7.32;;;;;;;;;;2063667;28;20443;-89
2023/09/05 05:55:35;;;;;;;6.93;6.22;;;;;;;;;;2064064;28;20527;-89
2023/09/05 05:56:35;;;;;;;7.55;6.85;;;;;;;;;;2068986;28;20042;-88
2023/09/05 05:57:36;;;;;;;9.15;7.00;;;;;;;;;;2075689;28;20049;-89
2023/09/05 05:58:37;;;;;;;8.48;7.03;;;;;;;;;;2072108;28;20042;-89
2023/09/05 05:59:37;;;;;;;11.38;7.18;;;;;;;;;;2079172;28;20137;-89
2023/09/05 06:00:37;;;;;;;10.07;6.63;;;;;;;;;;2076839;28;20536;-89
2023/09/05 06:01:38;;;;;;;8.77;7.70;;;;;;;;;;2062422;28;20043;-89
2023/09/05 06:02:39;;;;;;;10.93;7.88;;;;;;;;;;2062358;28;21299;-89
2023/09/05 06:03:39;;;;;;;9.43;6.97;;;;;;;;;;2062261;28;20270;-89
2023/09/05 06:04:40;;;;;;;7.90;6.63;;;;;;;;;;2070554;28;20038;-88
2023/09/05 06:05:50;;;;;;;7.88;7.07;;;;;;;;;;2062610;28;20114;-90
2023/09/05 06:06:51;;;;;;;7.38;6.60;;;;;;;;;;2063792;28;20454;-90